sensor_id;sensor_type;location;lat;lon;timestamp;P1;durP1;ratioP1;P2;durP2;ratioP2
8550;SDS011;4313;42.000;21.380;2022-12-07T00:00:54;35.20;;;24.20;;
8550;SDS011;4313;42.000;21.380;2022-12-07T00:03:21;32.20;;;22.70;;
8550;SDS011;4313;42.000;21.380;2022-12-07T00:05:48;28.73;;;21.63;;
8550;SDS011;4313;42.000;21.380;2022-12-07T00:08:15;32.40;;;22.33;;
8550;SDS011;4313;42.000;21.380;2022-12-07T00:10:42;42.87;;;28.77;;
8550;SDS011;4313;42.000;21.380;2022-12-07T00:13:09;38.60;;;26.17;;
8550;SDS011;4313;42.000;21.380;2022-12-07T00:15:37;43.53;;;28.03;;
8550;SDS011;4313;42.000;21.380;2022-12-07T00:18:05;34.53;;;24.20;;
8550;SDS011;4313;42.000;21.380;2022-12-07T00:20:32;32.67;;;23.47;;
8550;SDS011;4313;42.000;21.380;2022-12-07T00:22:59;32.27;;;23.03;;
8550;SDS011;4313;42.000;21.380;2022-12-07T00:25:26;45.03;;;29.47;;
8550;SDS011;4313;42.000;21.380;2022-12-07T00:27:53;81.53;;;46.83;;
8550;SDS011;4313;42.000;21.380;2022-12-07T00:30:21;73.77;;;41.13;;
8550;SDS011;4313;42.000;21.380;2022-12-07T00:32:50;72.03;;;41.27;;
8550;SDS011;4313;42.000;21.380;2022-12-07T00:35:17;80.57;;;43.93;;
8550;SDS011;4313;42.000;21.380;2022-12-07T00:37:44;84.87;;;46.33;;
8550;SDS011;4313;42.000;21.380;2022-12-07T00:40:12;91.37;;;51.00;;
8550;SDS011;4313;42.000;21.380;2022-12-07T00:42:39;95.73;;;53.43;;
8550;SDS011;4313;42.000;21.380;2022-12-07T00:45:06;85.63;;;48.83;;
8550;SDS011;4313;42.000;21.380;2022-12-07T00:47:34;69.43;;;41.87;;
8550;SDS011;4313;42.000;21.380;2022-12-07T00:50:03;36.67;;;24.97;;
8550;SDS011;4313;42.000;21.380;2022-12-07T00:52:31;32.17;;;22.70;;
8550;SDS011;4313;42.000;21.380;2022-12-07T00:54:58;33.70;;;23.90;;
8550;SDS011;4313;42.000;21.380;2022-12-07T00:57:25;38.70;;;27.77;;
8550;SDS011;4313;42.000;21.380;2022-12-07T00:59:53;45.53;;;31.17;;
8550;SDS011;4313;42.000;21.380;2022-12-07T01:02:22;43.80;;;30.70;;
8550;SDS011;4313;42.000;21.380;2022-12-07T01:04:49;41.90;;;29.50;;
8550;SDS011;4313;42.000;21.380;2022-12-07T01:07:18;39.90;;;26.37;;
8550;SDS011;4313;42.000;21.380;2022-12-07T01:09:47;31.73;;;23.47;;
8550;SDS011;4313;42.000;21.380;2022-12-07T01:12:14;34.43;;;22.37;;
8550;SDS011;4313;42.000;21.380;2022-12-07T01:14:42;28.67;;;20.87;;
8550;SDS011;4313;42.000;21.380;2022-12-07T01:17:09;29.57;;;20.57;;
8550;SDS011;4313;42.000;21.380;2022-12-07T01:19:36;28.93;;;20.13;;
8550;SDS011;4313;42.000;21.380;2022-12-07T01:22:03;28.27;;;21.00;;
8550;SDS011;4313;42.000;21.380;2022-12-07T01:24:37;29.20;;;21.20;;
8550;SDS011;4313;42.000;21.380;2022-12-07T01:27:04;29.70;;;21.43;;
8550;SDS011;4313;42.000;21.380;2022-12-07T01:29:31;28.77;;;19.93;;
8550;SDS011;4313;42.000;21.380;2022-12-07T01:31:59;28.83;;;20.70;;
8550;SDS011;4313;42.000;21.380;2022-12-07T01:34:25;28.70;;;20.53;;
8550;SDS011;4313;42.000;21.380;2022-12-07T01:36:53;36.70;;;21.00;;
8550;SDS011;4313;42.000;21.380;2022-12-07T01:39:20;27.43;;;19.83;;
8550;SDS011;4313;42.000;21.380;2022-12-07T01:41:48;29.43;;;22.00;;
8550;SDS011;4313;42.000;21.380;2022-12-07T01:44:20;28.03;;;20.87;;
8550;SDS011;4313;42.000;21.380;2022-12-07T01:46:48;26.07;;;19.87;;
8550;SDS011;4313;42.000;21.380;2022-12-07T01:49:17;30.60;;;22.23;;
8550;SDS011;4313;42.000;21.380;2022-12-07T01:51:47;29.73;;;22.87;;
8550;SDS011;4313;42.000;21.380;2022-12-07T01:54:16;34.63;;;25.40;;
8550;SDS011;4313;42.000;21.380;2022-12-07T01:56:44;32.60;;;24.87;;
8550;SDS011;4313;42.000;21.380;2022-12-07T01:59:16;33.63;;;24.03;;
8550;SDS011;4313;42.000;21.380;2022-12-07T02:01:45;32.30;;;25.20;;
8550;SDS011;4313;42.000;21.380;2022-12-07T02:04:12;38.70;;;28.63;;
8550;SDS011;4313;42.000;21.380;2022-12-07T02:06:39;41.20;;;31.87;;
8550;SDS011;4313;42.000;21.380;2022-12-07T02:09:07;40.67;;;31.07;;
8550;SDS011;4313;42.000;21.380;2022-12-07T02:11:34;40.27;;;29.80;;
8550;SDS011;4313;42.000;21.380;2022-12-07T02:14:03;42.07;;;31.40;;
8550;SDS011;4313;42.000;21.380;2022-12-07T02:16:31;41.40;;;30.67;;
8550;SDS011;4313;42.000;21.380;2022-12-07T02:19:08;39.87;;;30.53;;
8550;SDS011;4313;42.000;21.380;2022-12-07T02:21:58;30.57;;;21.53;;
8550;SDS011;4313;42.000;21.380;2022-12-07T02:24:48;29.20;;;21.03;;
8550;SDS011;4313;42.000;21.380;2022-12-07T02:27:25;28.47;;;23.13;;
8550;SDS011;4313;42.000;21.380;2022-12-07T02:30:27;34.87;;;26.50;;
8550;SDS011;4313;42.000;21.380;2022-12-07T02:32:58;35.40;;;25.40;;
8550;SDS011;4313;42.000;21.380;2022-12-07T02:35:28;47.00;;;30.23;;
8550;SDS011;4313;42.000;21.380;2022-12-07T02:37:58;32.20;;;26.00;;
8550;SDS011;4313;42.000;21.380;2022-12-07T02:40:29;31.63;;;23.80;;
8550;SDS011;4313;42.000;21.380;2022-12-07T02:43:00;30.93;;;22.60;;
8550;SDS011;4313;42.000;21.380;2022-12-07T02:45:30;28.97;;;21.00;;
8550;SDS011;4313;42.000;21.380;2022-12-07T02:47:58;27.17;;;20.67;;
8550;SDS011;4313;42.000;21.380;2022-12-07T02:50:27;27.57;;;20.57;;
8550;SDS011;4313;42.000;21.380;2022-12-07T02:52:55;27.47;;;21.57;;
8550;SDS011;4313;42.000;21.380;2022-12-07T02:55:24;30.73;;;21.80;;
8550;SDS011;4313;42.000;21.380;2022-12-07T02:57:55;30.47;;;21.80;;
8550;SDS011;4313;42.000;21.380;2022-12-07T03:00:42;30.90;;;21.50;;
8550;SDS011;4313;42.000;21.380;2022-12-07T03:03:14;31.43;;;20.83;;
8550;SDS011;4313;42.000;21.380;2022-12-07T03:05:51;28.37;;;20.83;;
8550;SDS011;4313;42.000;21.380;2022-12-07T03:08:21;29.50;;;21.77;;
8550;SDS011;4313;42.000;21.380;2022-12-07T03:10:54;32.20;;;22.97;;
8550;SDS011;4313;42.000;21.380;2022-12-07T03:13:24;28.70;;;22.10;;
8550;SDS011;4313;42.000;21.380;2022-12-07T03:15:58;29.10;;;22.20;;
8550;SDS011;4313;42.000;21.380;2022-12-07T03:18:29;24.27;;;19.83;;
8550;SDS011;4313;42.000;21.380;2022-12-07T03:20:58;28.70;;;19.27;;
8550;SDS011;4313;42.000;21.380;2022-12-07T03:23:27;32.03;;;23.77;;
8550;SDS011;4313;42.000;21.380;2022-12-07T03:25:57;26.83;;;20.83;;
8550;SDS011;4313;42.000;21.380;2022-12-07T03:28:26;28.90;;;20.63;;
8550;SDS011;4313;42.000;21.380;2022-12-07T03:31:00;28.00;;;20.77;;
8550;SDS011;4313;42.000;21.380;2022-12-07T03:33:31;31.30;;;22.03;;
8550;SDS011;4313;42.000;21.380;2022-12-07T03:36:03;28.77;;;21.47;;
8550;SDS011;4313;42.000;21.380;2022-12-07T03:38:32;28.13;;;19.23;;
8550;SDS011;4313;42.000;21.380;2022-12-07T03:41:04;27.87;;;20.83;;
8550;SDS011;4313;42.000;21.380;2022-12-07T03:43:33;28.77;;;20.70;;
8550;SDS011;4313;42.000;21.380;2022-12-07T03:46:05;26.30;;;20.57;;
8550;SDS011;4313;42.000;21.380;2022-12-07T03:48:46;25.77;;;19.40;;
8550;SDS011;4313;42.000;21.380;2022-12-07T03:51:20;29.77;;;20.20;;
8550;SDS011;4313;42.000;21.380;2022-12-07T03:53:51;27.03;;;18.33;;
8550;SDS011;4313;42.000;21.380;2022-12-07T03:56:20;28.67;;;19.53;;
8550;SDS011;4313;42.000;21.380;2022-12-07T03:58:48;27.77;;;19.67;;
8550;SDS011;4313;42.000;21.380;2022-12-07T04:01:18;29.70;;;19.87;;
8550;SDS011;4313;42.000;21.380;2022-12-07T04:03:45;30.37;;;20.97;;
8550;SDS011;4313;42.000;21.380;2022-12-07T04:06:12;26.40;;;19.70;;
8550;SDS011;4313;42.000;21.380;2022-12-07T04:08:42;24.80;;;19.13;;
8550;SDS011;4313;42.000;21.380;2022-12-07T04:11:10;30.33;;;21.30;;
8550;SDS011;4313;42.000;21.380;2022-12-07T04:13:37;36.53;;;26.33;;
8550;SDS011;4313;42.000;21.380;2022-12-07T04:16:19;40.17;;;28.63;;
8550;SDS011;4313;42.000;21.380;2022-12-07T04:18:46;34.97;;;24.80;;
8550;SDS011;4313;42.000;21.380;2022-12-07T04:21:13;33.53;;;24.23;;
8550;SDS011;4313;42.000;21.380;2022-12-07T04:23:40;31.63;;;23.67;;
8550;SDS011;4313;42.000;21.380;2022-12-07T04:26:08;34.00;;;23.27;;
8550;SDS011;4313;42.000;21.380;2022-12-07T04:28:35;35.33;;;24.03;;
8550;SDS011;4313;42.000;21.380;2022-12-07T04:31:02;33.20;;;24.93;;
8550;SDS011;4313;42.000;21.380;2022-12-07T04:33:30;33.07;;;24.70;;
8550;SDS011;4313;42.000;21.380;2022-12-07T04:35:57;29.20;;;21.40;;
8550;SDS011;4313;42.000;21.380;2022-12-07T04:38:24;30.75;;;21.60;;
8550;SDS011;4313;42.000;21.380;2022-12-07T04:40:51;30.03;;;21.30;;
8550;SDS011;4313;42.000;21.380;2022-12-07T04:43:18;26.33;;;19.83;;
8550;SDS011;4313;42.000;21.380;2022-12-07T04:45:46;30.80;;;20.87;;
8550;SDS011;4313;42.000;21.380;2022-12-07T04:48:13;30.03;;;20.67;;
8550;SDS011;4313;42.000;21.380;2022-12-07T04:51:01;29.00;;;20.37;;
8550;SDS011;4313;42.000;21.380;2022-12-07T04:53:29;27.10;;;20.63;;
8550;SDS011;4313;42.000;21.380;2022-12-07T04:55:56;25.67;;;19.80;;
8550;SDS011;4313;42.000;21.380;2022-12-07T04:58:23;27.33;;;22.23;;
8550;SDS011;4313;42.000;21.380;2022-12-07T05:00:53;30.90;;;23.30;;
8550;SDS011;4313;42.000;21.380;2022-12-07T05:03:20;33.33;;;25.43;;
8550;SDS011;4313;42.000;21.380;2022-12-07T05:05:47;35.90;;;25.37;;
8550;SDS011;4313;42.000;21.380;2022-12-07T05:08:16;33.57;;;24.47;;
8550;SDS011;4313;42.000;21.380;2022-12-07T05:10:43;33.00;;;26.60;;
8550;SDS011;4313;42.000;21.380;2022-12-07T05:13:11;36.53;;;27.23;;
8550;SDS011;4313;42.000;21.380;2022-12-07T05:15:38;34.80;;;27.07;;
8550;SDS011;4313;42.000;21.380;2022-12-07T05:18:05;36.53;;;25.97;;
8550;SDS011;4313;42.000;21.380;2022-12-07T05:20:32;33.53;;;25.10;;
8550;SDS011;4313;42.000;21.380;2022-12-07T05:23:19;31.90;;;24.37;;
8550;SDS011;4313;42.000;21.380;2022-12-07T05:25:47;31.63;;;24.30;;
8550;SDS011;4313;42.000;21.380;2022-12-07T05:28:14;34.60;;;24.90;;
8550;SDS011;4313;42.000;21.380;2022-12-07T05:30:41;29.23;;;23.53;;
8550;SDS011;4313;42.000;21.380;2022-12-07T05:33:08;36.37;;;27.23;;
8550;SDS011;4313;42.000;21.380;2022-12-07T05:35:35;35.13;;;25.70;;
8550;SDS011;4313;42.000;21.380;2022-12-07T05:38:03;39.37;;;31.20;;
8550;SDS011;4313;42.000;21.380;2022-12-07T05:40:31;43.47;;;32.90;;
8550;SDS011;4313;42.000;21.380;2022-12-07T05:42:58;42.03;;;33.30;;
8550;SDS011;4313;42.000;21.380;2022-12-07T05:45:25;40.97;;;30.60;;
8550;SDS011;4313;42.000;21.380;2022-12-07T05:47:53;38.53;;;27.10;;
8550;SDS011;4313;42.000;21.380;2022-12-07T05:50:21;36.77;;;26.87;;
8550;SDS011;4313;42.000;21.380;2022-12-07T05:52:59;37.37;;;28.37;;
8550;SDS011;4313;42.000;21.380;2022-12-07T05:55:26;36.97;;;28.57;;
8550;SDS011;4313;42.000;21.380;2022-12-07T05:57:55;36.67;;;29.00;;
8550;SDS011;4313;42.000;21.380;2022-12-07T06:00:39;44.30;;;33.23;;
8550;SDS011;4313;42.000;21.380;2022-12-07T06:03:06;50.93;;;33.87;;
8550;SDS011;4313;42.000;21.380;2022-12-07T06:05:33;45.03;;;31.00;;
8550;SDS011;4313;42.000;21.380;2022-12-07T06:08:00;42.80;;;33.03;;
8550;SDS011;4313;42.000;21.380;2022-12-07T06:10:28;44.30;;;34.10;;
8550;SDS011;4313;42.000;21.380;2022-12-07T06:12:56;45.20;;;32.37;;
8550;SDS011;4313;42.000;21.380;2022-12-07T06:15:22;42.03;;;32.60;;
8550;SDS011;4313;42.000;21.380;2022-12-07T06:17:49;48.07;;;35.50;;
8550;SDS011;4313;42.000;21.380;2022-12-07T06:20:16;47.80;;;36.53;;
8550;SDS011;4313;42.000;21.380;2022-12-07T06:22:43;54.23;;;38.20;;
8550;SDS011;4313;42.000;21.380;2022-12-07T06:25:11;57.47;;;42.33;;
8550;SDS011;4313;42.000;21.380;2022-12-07T06:27:38;48.80;;;35.27;;
8550;SDS011;4313;42.000;21.380;2022-12-07T06:30:07;45.17;;;33.47;;
8550;SDS011;4313;42.000;21.380;2022-12-07T06:32:36;42.43;;;33.20;;
8550;SDS011;4313;42.000;21.380;2022-12-07T06:35:04;40.47;;;32.50;;
8550;SDS011;4313;42.000;21.380;2022-12-07T06:37:31;43.57;;;31.27;;
8550;SDS011;4313;42.000;21.380;2022-12-07T06:39:58;37.42;;;31.20;;
8550;SDS011;4313;42.000;21.380;2022-12-07T06:42:25;40.42;;;30.15;;
8550;SDS011;4313;42.000;21.380;2022-12-07T06:44:52;40.53;;;30.23;;
8550;SDS011;4313;42.000;21.380;2022-12-07T06:47:21;39.42;;;29.65;;
8550;SDS011;4313;42.000;21.380;2022-12-07T06:49:48;40.50;;;31.17;;
8550;SDS011;4313;42.000;21.380;2022-12-07T06:52:15;40.87;;;31.33;;
8550;SDS011;4313;42.000;21.380;2022-12-07T06:54:42;41.93;;;32.73;;
8550;SDS011;4313;42.000;21.380;2022-12-07T06:57:09;42.60;;;31.33;;
8550;SDS011;4313;42.000;21.380;2022-12-07T06:59:36;37.73;;;29.93;;
8550;SDS011;4313;42.000;21.380;2022-12-07T07:02:04;39.58;;;29.88;;
8550;SDS011;4313;42.000;21.380;2022-12-07T07:04:32;37.88;;;27.85;;
8550;SDS011;4313;42.000;21.380;2022-12-07T07:06:59;35.13;;;28.03;;
8550;SDS011;4313;42.000;21.380;2022-12-07T07:09:27;40.37;;;29.60;;
8550;SDS011;4313;42.000;21.380;2022-12-07T07:11:54;47.45;;;34.38;;
8550;SDS011;4313;42.000;21.380;2022-12-07T07:14:21;40.00;;;30.63;;
8550;SDS011;4313;42.000;21.380;2022-12-07T07:16:49;40.65;;;31.40;;
8550;SDS011;4313;42.000;21.380;2022-12-07T07:19:16;42.43;;;31.00;;
8550;SDS011;4313;42.000;21.380;2022-12-07T07:21:44;36.83;;;29.27;;
8550;SDS011;4313;42.000;21.380;2022-12-07T07:24:11;36.45;;;28.48;;
8550;SDS011;4313;42.000;21.380;2022-12-07T07:26:38;38.63;;;29.85;;
8550;SDS011;4313;42.000;21.380;2022-12-07T07:29:08;46.30;;;35.45;;
8550;SDS011;4313;42.000;21.380;2022-12-07T07:31:36;49.10;;;37.17;;
8550;SDS011;4313;42.000;21.380;2022-12-07T07:34:04;52.67;;;36.73;;
8550;SDS011;4313;42.000;21.380;2022-12-07T07:36:38;49.57;;;37.00;;
8550;SDS011;4313;42.000;21.380;2022-12-07T07:39:10;48.50;;;37.33;;
8550;SDS011;4313;42.000;21.380;2022-12-07T07:41:39;56.73;;;39.83;;
8550;SDS011;4313;42.000;21.380;2022-12-07T07:44:11;48.07;;;33.37;;
8550;SDS011;4313;42.000;21.380;2022-12-07T07:46:40;46.23;;;34.80;;
8550;SDS011;4313;42.000;21.380;2022-12-07T07:49:08;40.30;;;32.50;;
8550;SDS011;4313;42.000;21.380;2022-12-07T07:51:36;47.03;;;32.77;;
8550;SDS011;4313;42.000;21.380;2022-12-07T07:54:20;44.92;;;31.90;;
8550;SDS011;4313;42.000;21.380;2022-12-07T07:56:47;47.85;;;34.58;;
8550;SDS011;4313;42.000;21.380;2022-12-07T07:59:16;48.97;;;35.13;;
8550;SDS011;4313;42.000;21.380;2022-12-07T08:01:46;50.28;;;34.95;;
8550;SDS011;4313;42.000;21.380;2022-12-07T08:04:13;44.38;;;35.25;;
8550;SDS011;4313;42.000;21.380;2022-12-07T08:06:41;44.38;;;33.60;;
8550;SDS011;4313;42.000;21.380;2022-12-07T08:09:08;50.77;;;38.17;;
8550;SDS011;4313;42.000;21.380;2022-12-07T08:11:40;43.67;;;32.33;;
8550;SDS011;4313;42.000;21.380;2022-12-07T08:14:07;39.58;;;31.42;;
8550;SDS011;4313;42.000;21.380;2022-12-07T08:16:45;39.43;;;29.07;;
8550;SDS011;4313;42.000;21.380;2022-12-07T08:19:12;40.63;;;30.10;;
8550;SDS011;4313;42.000;21.380;2022-12-07T08:21:39;45.97;;;32.27;;
8550;SDS011;4313;42.000;21.380;2022-12-07T08:24:06;43.20;;;32.33;;
8550;SDS011;4313;42.000;21.380;2022-12-07T08:26:33;50.10;;;32.72;;
8550;SDS011;4313;42.000;21.380;2022-12-07T08:29:03;44.33;;;32.95;;
8550;SDS011;4313;42.000;21.380;2022-12-07T08:31:31;46.70;;;34.30;;
8550;SDS011;4313;42.000;21.380;2022-12-07T08:33:58;48.60;;;35.20;;
8550;SDS011;4313;42.000;21.380;2022-12-07T08:36:33;56.87;;;38.33;;
8550;SDS011;4313;42.000;21.380;2022-12-07T08:39:01;53.35;;;35.88;;
8550;SDS011;4313;42.000;21.380;2022-12-07T08:41:30;55.80;;;37.88;;
8550;SDS011;4313;42.000;21.380;2022-12-07T08:44:02;50.58;;;34.05;;
8550;SDS011;4313;42.000;21.380;2022-12-07T08:46:31;60.40;;;37.63;;
8550;SDS011;4313;42.000;21.380;2022-12-07T08:49:04;56.20;;;35.47;;
8550;SDS011;4313;42.000;21.380;2022-12-07T08:51:35;54.55;;;35.80;;
8550;SDS011;4313;42.000;21.380;2022-12-07T08:54:04;59.63;;;35.47;;
8550;SDS011;4313;42.000;21.380;2022-12-07T08:56:50;54.83;;;34.33;;
8550;SDS011;4313;42.000;21.380;2022-12-07T08:59:22;52.10;;;32.20;;
8550;SDS011;4313;42.000;21.380;2022-12-07T09:04:20;50.10;;;32.88;;
8550;SDS011;4313;42.000;21.380;2022-12-07T09:06:47;50.03;;;32.33;;
8550;SDS011;4313;42.000;21.380;2022-12-07T09:09:15;51.85;;;34.70;;
8550;SDS011;4313;42.000;21.380;2022-12-07T09:11:42;54.03;;;34.75;;
8550;SDS011;4313;42.000;21.380;2022-12-07T09:14:10;49.50;;;33.20;;
8550;SDS011;4313;42.000;21.380;2022-12-07T09:16:39;49.00;;;33.03;;
8550;SDS011;4313;42.000;21.380;2022-12-07T09:19:07;56.67;;;35.08;;
8550;SDS011;4313;42.000;21.380;2022-12-07T09:21:34;51.05;;;32.30;;
8550;SDS011;4313;42.000;21.380;2022-12-07T09:24:02;50.85;;;33.28;;
8550;SDS011;4313;42.000;21.380;2022-12-07T09:26:29;51.65;;;33.22;;
8550;SDS011;4313;42.000;21.380;2022-12-07T09:28:57;61.17;;;39.17;;
8550;SDS011;4313;42.000;21.380;2022-12-07T09:31:25;53.40;;;36.80;;
8550;SDS011;4313;42.000;21.380;2022-12-07T09:33:54;66.22;;;41.00;;
8550;SDS011;4313;42.000;21.380;2022-12-07T09:36:21;61.72;;;40.63;;
8550;SDS011;4313;42.000;21.380;2022-12-07T09:38:51;58.38;;;38.00;;
8550;SDS011;4313;42.000;21.380;2022-12-07T09:41:18;58.45;;;39.22;;
8550;SDS011;4313;42.000;21.380;2022-12-07T09:43:46;53.90;;;35.53;;
8550;SDS011;4313;42.000;21.380;2022-12-07T09:46:14;58.13;;;36.60;;
8550;SDS011;4313;42.000;21.380;2022-12-07T09:48:43;55.15;;;36.15;;
8550;SDS011;4313;42.000;21.380;2022-12-07T09:51:14;52.33;;;35.05;;
8550;SDS011;4313;42.000;21.380;2022-12-07T09:53:43;47.80;;;32.80;;
8550;SDS011;4313;42.000;21.380;2022-12-07T09:56:11;48.30;;;33.45;;
8550;SDS011;4313;42.000;21.380;2022-12-07T09:58:39;48.92;;;33.25;;
8550;SDS011;4313;42.000;21.380;2022-12-07T10:01:09;53.33;;;34.63;;
8550;SDS011;4313;42.000;21.380;2022-12-07T10:03:38;52.00;;;34.03;;
8550;SDS011;4313;42.000;21.380;2022-12-07T10:06:10;51.85;;;33.88;;
8550;SDS011;4313;42.000;21.380;2022-12-07T10:08:40;51.70;;;33.58;;
8550;SDS011;4313;42.000;21.380;2022-12-07T10:11:08;53.05;;;34.13;;
8550;SDS011;4313;42.000;21.380;2022-12-07T10:13:37;50.63;;;34.65;;
8550;SDS011;4313;42.000;21.380;2022-12-07T10:16:06;55.97;;;35.47;;
8550;SDS011;4313;42.000;21.380;2022-12-07T10:18:35;50.42;;;34.55;;
8550;SDS011;4313;42.000;21.380;2022-12-07T10:21:13;42.80;;;30.48;;
8550;SDS011;4313;42.000;21.380;2022-12-07T10:23:58;40.83;;;29.15;;
8550;SDS011;4313;42.000;21.380;2022-12-07T10:26:27;38.67;;;26.17;;
8550;SDS011;4313;42.000;21.380;2022-12-07T10:28:59;38.05;;;25.98;;
8550;SDS011;4313;42.000;21.380;2022-12-07T10:31:27;36.30;;;24.42;;
8550;SDS011;4313;42.000;21.380;2022-12-07T10:33:55;38.30;;;27.55;;
8550;SDS011;4313;42.000;21.380;2022-12-07T10:36:24;38.92;;;27.52;;
8550;SDS011;4313;42.000;21.380;2022-12-07T10:39:00;32.17;;;24.10;;
8550;SDS011;4313;42.000;21.380;2022-12-07T10:41:30;34.22;;;24.15;;
8550;SDS011;4313;42.000;21.380;2022-12-07T10:44:11;33.28;;;22.55;;
8550;SDS011;4313;42.000;21.380;2022-12-07T10:47:12;33.60;;;24.50;;
8550;SDS011;4313;42.000;21.380;2022-12-07T10:49:53;32.20;;;22.88;;
8550;SDS011;4313;42.000;21.380;2022-12-07T10:52:42;32.88;;;22.73;;
8550;SDS011;4313;42.000;21.380;2022-12-07T10:55:18;34.40;;;24.65;;
8550;SDS011;4313;42.000;21.380;2022-12-07T10:57:55;28.23;;;22.83;;
8550;SDS011;4313;42.000;21.380;2022-12-07T11:00:31;31.45;;;23.92;;
8550;SDS011;4313;42.000;21.380;2022-12-07T11:06:08;32.58;;;23.08;;
8550;SDS011;4313;42.000;21.380;2022-12-07T11:08:44;31.58;;;20.88;;
8550;SDS011;4313;42.000;21.380;2022-12-07T11:11:21;32.05;;;22.05;;
8550;SDS011;4313;42.000;21.380;2022-12-07T11:13:55;29.00;;;22.30;;
8550;SDS011;4313;42.000;21.380;2022-12-07T11:16:32;27.17;;;21.27;;
8550;SDS011;4313;42.000;21.380;2022-12-07T11:22:12;32.42;;;20.33;;
8550;SDS011;4313;42.000;21.380;2022-12-07T11:24:45;28.23;;;20.10;;
8550;SDS011;4313;42.000;21.380;2022-12-07T11:27:22;25.80;;;19.75;;
8550;SDS011;4313;42.000;21.380;2022-12-07T11:30:00;26.38;;;19.65;;
8550;SDS011;4313;42.000;21.380;2022-12-07T11:32:38;31.83;;;21.08;;
8550;SDS011;4313;42.000;21.380;2022-12-07T11:35:26;29.20;;;19.63;;
8550;SDS011;4313;42.000;21.380;2022-12-07T11:38:03;26.25;;;19.15;;
8550;SDS011;4313;42.000;21.380;2022-12-07T11:40:37;31.92;;;22.42;;
8550;SDS011;4313;42.000;21.380;2022-12-07T11:43:09;28.95;;;18.92;;
8550;SDS011;4313;42.000;21.380;2022-12-07T11:45:47;23.77;;;17.90;;
8550;SDS011;4313;42.000;21.380;2022-12-07T11:48:20;22.80;;;17.48;;
8550;SDS011;4313;42.000;21.380;2022-12-07T11:50:51;25.23;;;18.67;;
8550;SDS011;4313;42.000;21.380;2022-12-07T11:53:22;24.13;;;16.33;;
8550;SDS011;4313;42.000;21.380;2022-12-07T11:55:52;23.83;;;17.40;;
8550;SDS011;4313;42.000;21.380;2022-12-07T11:58:31;27.25;;;19.33;;
8550;SDS011;4313;42.000;21.380;2022-12-07T12:01:29;24.05;;;17.25;;
8550;SDS011;4313;42.000;21.380;2022-12-07T12:04:04;23.45;;;15.77;;
8550;SDS011;4313;42.000;21.380;2022-12-07T12:06:34;23.27;;;18.17;;
8550;SDS011;4313;42.000;21.380;2022-12-07T12:09:04;19.08;;;15.13;;
8550;SDS011;4313;42.000;21.380;2022-12-07T12:11:46;21.27;;;13.75;;
8550;SDS011;4313;42.000;21.380;2022-12-07T12:14:25;27.67;;;19.60;;
8550;SDS011;4313;42.000;21.380;2022-12-07T12:20:01;22.27;;;15.18;;
8550;SDS011;4313;42.000;21.380;2022-12-07T12:22:33;21.23;;;15.65;;
8550;SDS011;4313;42.000;21.380;2022-12-07T12:25:03;22.50;;;17.25;;
8550;SDS011;4313;42.000;21.380;2022-12-07T12:27:47;24.70;;;16.98;;
8550;SDS011;4313;42.000;21.380;2022-12-07T12:30:25;25.83;;;16.42;;
8550;SDS011;4313;42.000;21.380;2022-12-07T12:33:01;25.63;;;16.58;;
8550;SDS011;4313;42.000;21.380;2022-12-07T12:35:29;20.45;;;16.63;;
8550;SDS011;4313;42.000;21.380;2022-12-07T12:40:54;21.60;;;16.48;;
8550;SDS011;4313;42.000;21.380;2022-12-07T12:43:41;21.45;;;14.93;;
8550;SDS011;4313;42.000;21.380;2022-12-07T12:46:38;25.63;;;17.52;;
8550;SDS011;4313;42.000;21.380;2022-12-07T12:55:43;26.13;;;18.20;;
8550;SDS011;4313;42.000;21.380;2022-12-07T12:58:41;26.13;;;17.50;;
8550;SDS011;4313;42.000;21.380;2022-12-07T13:10:20;21.75;;;17.05;;
8550;SDS011;4313;42.000;21.380;2022-12-07T13:12:57;23.45;;;15.40;;
8550;SDS011;4313;42.000;21.380;2022-12-07T13:15:31;22.25;;;16.13;;
8550;SDS011;4313;42.000;21.380;2022-12-07T13:18:22;21.45;;;15.63;;
8550;SDS011;4313;42.000;21.380;2022-12-07T13:20:51;19.42;;;15.45;;
8550;SDS011;4313;42.000;21.380;2022-12-07T13:23:20;20.08;;;15.13;;
8550;SDS011;4313;42.000;21.380;2022-12-07T13:25:51;22.13;;;15.70;;
8550;SDS011;4313;42.000;21.380;2022-12-07T13:28:22;25.50;;;18.30;;
8550;SDS011;4313;42.000;21.380;2022-12-07T13:33:47;20.20;;;15.43;;
8550;SDS011;4313;42.000;21.380;2022-12-07T13:36:19;21.30;;;14.63;;
8550;SDS011;4313;42.000;21.380;2022-12-07T13:38:49;21.00;;;15.95;;
8550;SDS011;4313;42.000;21.380;2022-12-07T13:41:19;18.80;;;14.45;;
8550;SDS011;4313;42.000;21.380;2022-12-07T13:43:51;20.25;;;14.93;;
8550;SDS011;4313;42.000;21.380;2022-12-07T13:46:25;19.25;;;13.82;;
8550;SDS011;4313;42.000;21.380;2022-12-07T13:48:59;25.52;;;18.90;;
8550;SDS011;4313;42.000;21.380;2022-12-07T13:51:26;22.92;;;18.23;;
8550;SDS011;4313;42.000;21.380;2022-12-07T13:53:55;23.45;;;17.92;;
8550;SDS011;4313;42.000;21.380;2022-12-07T13:56:26;27.67;;;21.05;;
8550;SDS011;4313;42.000;21.380;2022-12-07T13:58:55;27.52;;;18.10;;
8550;SDS011;4313;42.000;21.380;2022-12-07T14:01:22;26.17;;;19.20;;
8550;SDS011;4313;42.000;21.380;2022-12-07T14:03:50;22.55;;;17.83;;
8550;SDS011;4313;42.000;21.380;2022-12-07T14:06:26;27.15;;;18.50;;
8550;SDS011;4313;42.000;21.380;2022-12-07T14:09:07;22.77;;;18.73;;
8550;SDS011;4313;42.000;21.380;2022-12-07T14:11:35;21.60;;;17.13;;
8550;SDS011;4313;42.000;21.380;2022-12-07T14:14:03;29.63;;;19.95;;
8550;SDS011;4313;42.000;21.380;2022-12-07T14:16:31;26.48;;;20.23;;
8550;SDS011;4313;42.000;21.380;2022-12-07T14:19:00;26.15;;;19.33;;
8550;SDS011;4313;42.000;21.380;2022-12-07T14:21:30;27.75;;;18.75;;
8550;SDS011;4313;42.000;21.380;2022-12-07T14:26:40;27.98;;;20.27;;
8550;SDS011;4313;42.000;21.380;2022-12-07T14:32:12;39.00;;;29.85;;
8550;SDS011;4313;42.000;21.380;2022-12-07T14:34:55;30.70;;;22.53;;
8550;SDS011;4313;42.000;21.380;2022-12-07T14:37:26;34.40;;;29.73;;
8550;SDS011;4313;42.000;21.380;2022-12-07T14:39:56;33.95;;;25.45;;
8550;SDS011;4313;42.000;21.380;2022-12-07T14:42:24;30.25;;;23.45;;
8550;SDS011;4313;42.000;21.380;2022-12-07T14:44:54;28.15;;;21.60;;
8550;SDS011;4313;42.000;21.380;2022-12-07T14:47:21;34.90;;;24.88;;
8550;SDS011;4313;42.000;21.380;2022-12-07T14:49:49;39.15;;;27.63;;
8550;SDS011;4313;42.000;21.380;2022-12-07T14:52:16;35.85;;;25.98;;
8550;SDS011;4313;42.000;21.380;2022-12-07T14:54:46;37.55;;;26.00;;
8550;SDS011;4313;42.000;21.380;2022-12-07T14:57:13;38.05;;;26.52;;
8550;SDS011;4313;42.000;21.380;2022-12-07T14:59:41;42.95;;;32.22;;
8550;SDS011;4313;42.000;21.380;2022-12-07T15:02:09;34.58;;;27.23;;
8550;SDS011;4313;42.000;21.380;2022-12-07T15:04:38;43.17;;;28.00;;
8550;SDS011;4313;42.000;21.380;2022-12-07T15:07:06;40.35;;;28.67;;
8550;SDS011;4313;42.000;21.380;2022-12-07T15:09:37;46.35;;;29.67;;
8550;SDS011;4313;42.000;21.380;2022-12-07T15:12:07;45.60;;;30.65;;
8550;SDS011;4313;42.000;21.380;2022-12-07T15:14:36;45.10;;;32.33;;
8550;SDS011;4313;42.000;21.380;2022-12-07T15:17:04;41.58;;;30.17;;
8550;SDS011;4313;42.000;21.380;2022-12-07T15:19:31;53.33;;;36.95;;
8550;SDS011;4313;42.000;21.380;2022-12-07T15:21:58;43.03;;;30.52;;
8550;SDS011;4313;42.000;21.380;2022-12-07T15:24:26;45.72;;;30.08;;
8550;SDS011;4313;42.000;21.380;2022-12-07T15:26:53;41.65;;;29.58;;
8550;SDS011;4313;42.000;21.380;2022-12-07T15:29:22;37.92;;;26.52;;
8550;SDS011;4313;42.000;21.380;2022-12-07T15:31:49;45.28;;;30.50;;